This is the latest recevied weather packets stored in our database for station/object M0TUM-1. If no packets are shown the sender has not sent any weather packets the latest 10 day(s).
| Time | Temp. | Humidity | Pressure | Rain* | Wind** | Luminosity | Snow |
|---|---|---|---|---|---|---|---|
| 1778241874 | 21.11° C | 34% | 1017.4 hPa | 0 mm | - | 703 W/m² | - |
| 1778241572 | 20° C | 36% | 1017.3 hPa | 0 mm | - | 705 W/m² | - |
| 1778241270 | 20° C | 36% | 1017.3 hPa | 0 mm | - | 702 W/m² | - |
| 1778240965 | 20° C | 37% | 1017.4 hPa | 0 mm | - | 716 W/m² | - |
| 1778240663 | 19.44° C | 39% | 1017.5 hPa | 0 mm | - | 714 W/m² | - |
| 1778240359 | 19.44° C | 38% | 1017.7 hPa | 0 mm | - | 680 W/m² | - |
| 1778240057 | 19.44° C | 37% | 1017.6 hPa | 0 mm | - | 674 W/m² | - |
| 1778239754 | 18.89° C | 39% | 1017.7 hPa | 0 mm | - | 694 W/m² | - |
| 1778239451 | 18.89° C | 40% | 1017.6 hPa | 0 mm | - | 207 W/m² | - |
| 1778239147 | 18.89° C | 40% | 1017.8 hPa | 0 mm | - | 734 W/m² | - |
| 1778238844 | 17.78° C | 42% | 1017.6 hPa | 0 mm | - | 739 W/m² | - |
| 1778238542 | 18.89° C | 41% | 1017.9 hPa | 0 mm | - | 763 W/m² | - |
| 1778238239 | 18.89° C | 42% | 1017.8 hPa | 0 mm | - | 767 W/m² | - |
| 1778237939 | 18.89° C | 43% | 1017.8 hPa | 0 mm | - | 754 W/m² | - |
| 1778237635 | 19.44° C | 39% | 1017.9 hPa | 0 mm | - | 758 W/m² | - |
| 1778237333 | 18.89° C | 42% | 1017.7 hPa | 0 mm | - | 771 W/m² | - |
| 1778237029 | 18.89° C | 41% | 1017.8 hPa | 0 mm | - | 787 W/m² | - |
| 1778236727 | 19.44° C | 41% | 1017.7 hPa | 0 mm | - | 795 W/m² | - |
| 1778236424 | 18.89° C | 41% | 1017.9 hPa | 0 mm | - | 769 W/m² | - |
| 1778236121 | 18.33° C | 42% | 1017.8 hPa | 0 mm | - | 753 W/m² | - |
| 1778235819 | 17.78° C | 45% | 1017.7 hPa | 0 mm | - | 757 W/m² | - |
| 1778235516 | 17.22° C | 46% | 1017.7 hPa | 0 mm | - | 280 W/m² | - |
| 1778235214 | 18.33° C | 47% | 1017.8 hPa | 0 mm | - | 562 W/m² | - |
| 1778234911 | 17.78° C | 46% | 1017.9 hPa | 0 mm | - | 715 W/m² | - |
| 1778234610 | 17.22° C | 47% | 1017.8 hPa | 0 mm | - | 711 W/m² | - |
* Rain latest hour (hover to see other rain measurements)
** Current wind speed in m/s (hover to see current wind gust speed)